APJ483 RJGG-ROAH
Flight info
| Callsign | APJ483 |
|---|---|
| Flight time | 2h 10m |
| Altitude | 38000 |
| Route | ESPAN KEC Y12 LAXEL Y52 TONAR Y525 IHEYA |
| Aircraft | A20N/M-SDE2E3FGHIJ1RWXY/LB1 |
Departure
| Time | 2026-04-26 12:56 |
|---|---|
| Airport | Chubu Centrair International Airport (RJGG) |
Arrival
| Time | 2026-04-26 15:07 |
|---|---|
| Airport | Naha International Airport (ROAH) |
| Time | Latitude | Longitude | Altitude | Speed | Heading |
|---|---|---|---|---|---|
| 2026-04-26 12:34 | 34.86237 | 136.81266 | 19 ft | 0 kts | 78° |
| 2026-04-26 12:45 | 34.86236 | 136.81259 | 19 ft | 2 kts | 77° |
| 2026-04-26 12:45 | 34.86233 | 136.81240 | 46 ft | 2 kts | 78° |
| 2026-04-26 12:45 | 34.86229 | 136.81220 | 33 ft | 2 kts | 78° |
| 2026-04-26 12:46 | 34.86226 | 136.81201 | 14 ft | 2 kts | 78° |
| 2026-04-26 12:46 | 34.86224 | 136.81181 | 22 ft | 2 kts | 105° |
| 2026-04-26 12:46 | 34.86231 | 136.81162 | 20 ft | 2 kts | 122° |
| 2026-04-26 12:46 | 34.86240 | 136.81146 | 19 ft | 2 kts | 133° |
| 2026-04-26 12:47 | 34.86252 | 136.81133 | 19 ft | 2 kts | 144° |
| 2026-04-26 12:47 | 34.86262 | 136.81125 | 22 ft | 1 kts | 158° |
| 2026-04-26 12:47 | 34.86265 | 136.81124 | 22 ft | 0 kts | 162° |
| 2026-04-26 12:47 | 34.86264 | 136.81124 | 22 ft | 0 kts | 162° |
| 2026-04-26 12:49 | 34.86245 | 136.81130 | 19 ft | 5 kts | 168° |
| 2026-04-26 12:49 | 34.86200 | 136.81140 | 20 ft | 8 kts | 170° |
| 2026-04-26 12:49 | 34.86134 | 136.81155 | 19 ft | 11 kts | 171° |
| 2026-04-26 12:49 | 34.86087 | 136.81093 | 19 ft | 12 kts | 251° |
| 2026-04-26 12:50 | 34.86069 | 136.80988 | 21 ft | 14 kts | 257° |
| 2026-04-26 12:50 | 34.86042 | 136.80869 | 19 ft | 14 kts | 234° |
| 2026-04-26 12:50 | 34.85955 | 136.80865 | 19 ft | 14 kts | 167° |
| 2026-04-26 12:50 | 34.85854 | 136.80891 | 18 ft | 15 kts | 171° |
| 2026-04-26 12:51 | 34.85745 | 136.80917 | 18 ft | 17 kts | 167° |
| 2026-04-26 12:51 | 34.85622 | 136.80945 | 18 ft | 19 kts | 169° |
| 2026-04-26 12:51 | 34.85487 | 136.80978 | 20 ft | 20 kts | 169° |
| 2026-04-26 12:51 | 34.85355 | 136.81010 | 19 ft | 19 kts | 169° |
| 2026-04-26 12:52 | 34.85217 | 136.81042 | 19 ft | 21 kts | 169° |
| 2026-04-26 12:52 | 34.85078 | 136.81077 | 19 ft | 20 kts | 168° |
| 2026-04-26 12:52 | 34.84934 | 136.81111 | 20 ft | 20 kts | 169° |
| 2026-04-26 12:52 | 34.84791 | 136.81147 | 19 ft | 22 kts | 169° |
| 2026-04-26 12:53 | 34.84650 | 136.81180 | 20 ft | 20 kts | 168° |
| 2026-04-26 12:53 | 34.84514 | 136.81214 | 19 ft | 20 kts | 169° |
| 2026-04-26 12:53 | 34.84386 | 136.81236 | 19 ft | 16 kts | 195° |
| 2026-04-26 12:53 | 34.84343 | 136.81131 | 18 ft | 12 kts | 258° |
| 2026-04-26 12:54 | 34.84329 | 136.81046 | 18 ft | 0 kts | 259° |
| 2026-04-26 12:55 | 34.84327 | 136.81033 | 20 ft | 3 kts | 259° |
| 2026-04-26 12:55 | 34.84321 | 136.80995 | 17 ft | 6 kts | 260° |
| 2026-04-26 12:55 | 34.84314 | 136.80931 | 17 ft | 9 kts | 264° |
| 2026-04-26 12:55 | 34.84346 | 136.80892 | 17 ft | 9 kts | 349° |
| 2026-04-26 12:56 | 34.84601 | 136.80833 | 19 ft | 72 kts | 348° |
| 2026-04-26 12:56 | 34.85296 | 136.80666 | 19 ft | 130 kts | 348° |
| 2026-04-26 12:56 | 34.86335 | 136.80415 | 129 ft | 164 kts | 351° |
| 2026-04-26 12:56 | 34.87363 | 136.79865 | 702 ft | 168 kts | 314° |
| 2026-04-26 12:57 | 34.87739 | 136.78535 | 1261 ft | 170 kts | 265° |
| 2026-04-26 12:57 | 34.87531 | 136.77085 | 1736 ft | 181 kts | 252° |
| 2026-04-26 12:57 | 34.87154 | 136.75530 | 2149 ft | 201 kts | 249° |
| 2026-04-26 12:58 | 34.86187 | 136.71949 | 3105 ft | 245 kts | 249° |
| 2026-04-26 12:58 | 34.85637 | 136.69930 | 3696 ft | 263 kts | 249° |
| 2026-04-26 12:58 | 34.85046 | 136.67757 | 4427 ft | 275 kts | 249° |
| 2026-04-26 12:58 | 34.84376 | 136.65582 | 5407 ft | 273 kts | 237° |
| 2026-04-26 12:59 | 34.83124 | 136.63881 | 6294 ft | 272 kts | 210° |
| 2026-04-26 12:59 | 34.81386 | 136.63059 | 7150 ft | 267 kts | 187° |
| 2026-04-26 12:59 | 34.79557 | 136.62926 | 8124 ft | 262 kts | 168° |
| 2026-04-26 12:59 | 34.77894 | 136.63786 | 9066 ft | 262 kts | 144° |
| 2026-04-26 13:00 | 34.76559 | 136.65320 | 9949 ft | 267 kts | 134° |
| 2026-04-26 13:00 | 34.75310 | 136.67039 | 10546 ft | 280 kts | 133° |
| 2026-04-26 13:00 | 34.74029 | 136.68957 | 10840 ft | 304 kts | 130° |
| 2026-04-26 13:00 | 34.72675 | 136.70998 | 11335 ft | 313 kts | 139° |
| 2026-04-26 13:01 | 34.70954 | 136.72563 | 12044 ft | 314 kts | 153° |
| 2026-04-26 13:01 | 34.68922 | 136.73552 | 12797 ft | 317 kts | 167° |
| 2026-04-26 13:01 | 34.66884 | 136.73857 | 13518 ft | 319 kts | 180° |
| 2026-04-26 13:01 | 34.65310 | 136.73669 | 14041 ft | 322 kts | 190° |
| 2026-04-26 13:02 | 34.63127 | 136.72975 | 14720 ft | 327 kts | 193° |
| 2026-04-26 13:02 | 34.60912 | 136.72244 | 15351 ft | 331 kts | 193° |
| 2026-04-26 13:02 | 34.58688 | 136.71544 | 16003 ft | 335 kts | 192° |
| 2026-04-26 13:02 | 34.56402 | 136.70872 | 16618 ft | 340 kts | 192° |
| 2026-04-26 13:03 | 34.54090 | 136.70128 | 17177 ft | 347 kts | 195° |
| 2026-04-26 13:03 | 34.51757 | 136.69305 | 17832 ft | 350 kts | 195° |
| 2026-04-26 13:03 | 34.49398 | 136.68483 | 18421 ft | 355 kts | 195° |
| 2026-04-26 13:03 | 34.47006 | 136.67678 | 18997 ft | 357 kts | 195° |
| 2026-04-26 13:04 | 34.44601 | 136.66889 | 19592 ft | 359 kts | 195° |
| 2026-04-26 13:04 | 34.42170 | 136.66104 | 20166 ft | 362 kts | 196° |
| 2026-04-26 13:04 | 34.39712 | 136.65315 | 20735 ft | 366 kts | 196° |
| 2026-04-26 13:04 | 34.37239 | 136.64523 | 21316 ft | 369 kts | 197° |
| 2026-04-26 13:05 | 34.34743 | 136.63725 | 21864 ft | 372 kts | 197° |
| 2026-04-26 13:05 | 34.32260 | 136.62930 | 22411 ft | 375 kts | 197° |
| 2026-04-26 13:05 | 34.29730 | 136.62120 | 22966 ft | 377 kts | 198° |
| 2026-04-26 13:05 | 34.27181 | 136.61305 | 23498 ft | 380 kts | 198° |
| 2026-04-26 13:06 | 34.24616 | 136.60485 | 23967 ft | 382 kts | 198° |
| 2026-04-26 13:06 | 34.22043 | 136.59640 | 24498 ft | 381 kts | 200° |
| 2026-04-26 13:06 | 34.19586 | 136.58463 | 24977 ft | 379 kts | 208° |
| 2026-04-26 13:06 | 34.17332 | 136.56885 | 25419 ft | 379 kts | 216° |
| 2026-04-26 13:07 | 34.15273 | 136.54909 | 25878 ft | 379 kts | 222° |
| 2026-04-26 13:07 | 34.13318 | 136.52764 | 26324 ft | 380 kts | 221° |
| 2026-04-26 13:07 | 34.11349 | 136.50623 | 26756 ft | 381 kts | 221° |
| 2026-04-26 13:07 | 34.09370 | 136.48480 | 27158 ft | 383 kts | 221° |
| 2026-04-26 13:08 | 34.07374 | 136.46324 | 27457 ft | 387 kts | 221° |
| 2026-04-26 13:08 | 34.05364 | 136.44155 | 27850 ft | 388 kts | 221° |
| 2026-04-26 13:08 | 34.03351 | 136.41985 | 28251 ft | 389 kts | 221° |
| 2026-04-26 13:08 | 34.01327 | 136.39804 | 28620 ft | 390 kts | 221° |
| 2026-04-26 13:09 | 33.99294 | 136.37616 | 28983 ft | 392 kts | 221° |
| 2026-04-26 13:09 | 33.97252 | 136.35418 | 29258 ft | 395 kts | 221° |
| 2026-04-26 13:09 | 33.95192 | 136.33202 | 29516 ft | 398 kts | 220° |
| 2026-04-26 13:09 | 33.93125 | 136.30981 | 29860 ft | 399 kts | 220° |
| 2026-04-26 13:10 | 33.91051 | 136.28753 | 30177 ft | 400 kts | 220° |
| 2026-04-26 13:10 | 33.88974 | 136.26525 | 30525 ft | 400 kts | 221° |
| 2026-04-26 13:10 | 33.86921 | 136.24324 | 30868 ft | 400 kts | 221° |
| 2026-04-26 13:10 | 33.84844 | 136.22098 | 31238 ft | 399 kts | 221° |
| 2026-04-26 13:11 | 33.82777 | 136.19885 | 31689 ft | 396 kts | 221° |
| 2026-04-26 13:11 | 33.80734 | 136.17699 | 32179 ft | 391 kts | 221° |
| 2026-04-26 13:11 | 33.78710 | 136.15533 | 32625 ft | 388 kts | 221° |
| 2026-04-26 13:11 | 33.76695 | 136.13380 | 32999 ft | 387 kts | 221° |
| 2026-04-26 13:12 | 33.74687 | 136.11236 | 33418 ft | 383 kts | 221° |
| 2026-04-26 13:12 | 33.72701 | 136.09117 | 33847 ft | 380 kts | 221° |
| 2026-04-26 13:12 | 33.70734 | 136.07019 | 34232 ft | 376 kts | 221° |
| 2026-04-26 13:12 | 33.68785 | 136.04941 | 34623 ft | 372 kts | 221° |
| 2026-04-26 13:13 | 33.66881 | 136.02913 | 35015 ft | 368 kts | 221° |
| 2026-04-26 13:13 | 33.64980 | 136.00890 | 35389 ft | 363 kts | 221° |
| 2026-04-26 13:13 | 33.63096 | 135.98886 | 35756 ft | 359 kts | 221° |
| 2026-04-26 13:13 | 33.61232 | 135.96904 | 36104 ft | 356 kts | 221° |
| 2026-04-26 13:14 | 33.59389 | 135.94945 | 36474 ft | 351 kts | 221° |
| 2026-04-26 13:14 | 33.57570 | 135.93014 | 36864 ft | 346 kts | 221° |
| 2026-04-26 13:14 | 33.55774 | 135.91108 | 37171 ft | 343 kts | 221° |
| 2026-04-26 13:14 | 33.53991 | 135.89217 | 37434 ft | 341 kts | 221° |
| 2026-04-26 13:15 | 33.52245 | 135.87366 | 37699 ft | 338 kts | 221° |
| 2026-04-26 13:15 | 33.50487 | 135.85503 | 37908 ft | 336 kts | 222° |
| 2026-04-26 13:15 | 33.47487 | 135.82473 | 37911 ft | 342 kts | 218° |
| 2026-04-26 13:16 | 33.42757 | 135.78806 | 37914 ft | 351 kts | 212° |
| 2026-04-26 13:16 | 33.38284 | 135.76343 | 37890 ft | 354 kts | 206° |
| 2026-04-26 13:17 | 33.31412 | 135.73093 | 37908 ft | 355 kts | 207° |
| 2026-04-26 13:18 | 33.24510 | 135.69812 | 37903 ft | 355 kts | 207° |
| 2026-04-26 13:19 | 33.17610 | 135.66539 | 37898 ft | 355 kts | 207° |
| 2026-04-26 13:19 | 33.13010 | 135.64361 | 37902 ft | 356 kts | 207° |
| 2026-04-26 13:20 | 33.08409 | 135.62183 | 37897 ft | 357 kts | 207° |
| 2026-04-26 13:20 | 33.03781 | 135.59998 | 37894 ft | 357 kts | 207° |
| 2026-04-26 13:21 | 32.99181 | 135.57828 | 37896 ft | 357 kts | 207° |
| 2026-04-26 13:21 | 32.94602 | 135.55671 | 37894 ft | 351 kts | 206° |
| 2026-04-26 13:22 | 32.90033 | 135.53518 | 37865 ft | 353 kts | 207° |
| 2026-04-26 13:22 | 32.85432 | 135.51354 | 37892 ft | 357 kts | 207° |
| 2026-04-26 13:23 | 32.80842 | 135.49198 | 37893 ft | 356 kts | 207° |
| 2026-04-26 13:23 | 32.76166 | 135.47004 | 37892 ft | 356 kts | 206° |
| 2026-04-26 13:24 | 32.71612 | 135.44870 | 37893 ft | 356 kts | 206° |
| 2026-04-26 13:24 | 32.66992 | 135.42708 | 37895 ft | 356 kts | 206° |
| 2026-04-26 13:25 | 32.62359 | 135.40541 | 37893 ft | 359 kts | 207° |
| 2026-04-26 13:25 | 32.57736 | 135.38382 | 37902 ft | 358 kts | 207° |
| 2026-04-26 13:26 | 32.53134 | 135.36234 | 37894 ft | 354 kts | 206° |
| 2026-04-26 13:26 | 32.48530 | 135.34088 | 37898 ft | 355 kts | 206° |
| 2026-04-26 13:27 | 32.43956 | 135.31959 | 37895 ft | 355 kts | 206° |
| 2026-04-26 13:27 | 32.39334 | 135.29810 | 37894 ft | 358 kts | 206° |
| 2026-04-26 13:28 | 32.34672 | 135.27643 | 37898 ft | 360 kts | 206° |
| 2026-04-26 13:28 | 32.30039 | 135.25494 | 37900 ft | 359 kts | 206° |
| 2026-04-26 13:29 | 32.25381 | 135.23335 | 37897 ft | 359 kts | 206° |
| 2026-04-26 13:29 | 32.20721 | 135.21177 | 37900 ft | 359 kts | 206° |
| 2026-04-26 13:30 | 32.16820 | 135.19373 | 37887 ft | 360 kts | 206° |
| 2026-04-26 13:30 | 32.12254 | 135.16980 | 37903 ft | 357 kts | 213° |
| 2026-04-26 13:31 | 32.08270 | 135.13603 | 37904 ft | 354 kts | 223° |
| 2026-04-26 13:31 | 32.04967 | 135.09301 | 37901 ft | 355 kts | 231° |
| 2026-04-26 13:32 | 32.01970 | 135.04672 | 37900 ft | 355 kts | 230° |
| 2026-04-26 13:32 | 31.98952 | 135.00052 | 37905 ft | 355 kts | 230° |
| 2026-04-26 13:33 | 31.95952 | 134.95454 | 37897 ft | 352 kts | 229° |
| 2026-04-26 13:33 | 31.92970 | 134.90901 | 37889 ft | 353 kts | 229° |
| 2026-04-26 13:34 | 31.89949 | 134.86298 | 37900 ft | 356 kts | 229° |
| 2026-04-26 13:34 | 31.86928 | 134.81692 | 37900 ft | 355 kts | 229° |
| 2026-04-26 13:35 | 31.83905 | 134.77092 | 37897 ft | 355 kts | 229° |
| 2026-04-26 13:35 | 31.80878 | 134.72492 | 37897 ft | 355 kts | 229° |
| 2026-04-26 13:36 | 31.77869 | 134.67924 | 37898 ft | 355 kts | 229° |
| 2026-04-26 13:36 | 31.74836 | 134.63326 | 37898 ft | 355 kts | 229° |
| 2026-04-26 13:37 | 31.71815 | 134.58746 | 37892 ft | 353 kts | 228° |
| 2026-04-26 13:37 | 31.68803 | 134.54193 | 37892 ft | 354 kts | 228° |
| 2026-04-26 13:38 | 31.65764 | 134.49607 | 37892 ft | 356 kts | 228° |
| 2026-04-26 13:38 | 31.62726 | 134.45022 | 37892 ft | 355 kts | 228° |
| 2026-04-26 13:39 | 31.59692 | 134.40447 | 37891 ft | 353 kts | 227° |
| 2026-04-26 13:39 | 31.56691 | 134.35926 | 37891 ft | 352 kts | 227° |
| 2026-04-26 13:40 | 31.53655 | 134.31368 | 37889 ft | 355 kts | 227° |
| 2026-04-26 13:40 | 31.50636 | 134.26832 | 37892 ft | 355 kts | 227° |
| 2026-04-26 13:41 | 31.47598 | 134.22274 | 37923 ft | 355 kts | 227° |
| 2026-04-26 13:41 | 31.44585 | 134.17754 | 37894 ft | 351 kts | 227° |
| 2026-04-26 13:42 | 31.41554 | 134.13225 | 37891 ft | 353 kts | 227° |
| 2026-04-26 13:42 | 31.38531 | 134.08705 | 37889 ft | 353 kts | 227° |
| 2026-04-26 13:43 | 31.35505 | 134.04187 | 37890 ft | 353 kts | 227° |
| 2026-04-26 13:43 | 31.32475 | 133.99669 | 37891 ft | 353 kts | 227° |
| 2026-04-26 13:44 | 31.29442 | 133.95151 | 37892 ft | 353 kts | 227° |
| 2026-04-26 13:44 | 31.26404 | 133.90632 | 37889 ft | 353 kts | 227° |
| 2026-04-26 13:45 | 31.23387 | 133.86149 | 37889 ft | 353 kts | 227° |
| 2026-04-26 13:45 | 31.20340 | 133.81629 | 37891 ft | 354 kts | 227° |
| 2026-04-26 13:46 | 31.17269 | 133.77079 | 37889 ft | 357 kts | 227° |
| 2026-04-26 13:46 | 31.14195 | 133.72525 | 37892 ft | 357 kts | 227° |
| 2026-04-26 13:47 | 31.11120 | 133.67977 | 37895 ft | 357 kts | 227° |
| 2026-04-26 13:47 | 31.08037 | 133.63422 | 37893 ft | 356 kts | 227° |
| 2026-04-26 13:48 | 31.04928 | 133.58841 | 37893 ft | 363 kts | 228° |
| 2026-04-26 13:48 | 31.01792 | 133.54220 | 37892 ft | 367 kts | 228° |
| 2026-04-26 13:49 | 30.98627 | 133.49558 | 37894 ft | 366 kts | 228° |
| 2026-04-26 13:49 | 30.95461 | 133.44895 | 37890 ft | 365 kts | 227° |
| 2026-04-26 13:50 | 30.92301 | 133.40253 | 37898 ft | 368 kts | 228° |
| 2026-04-26 13:50 | 30.89095 | 133.35551 | 37898 ft | 373 kts | 228° |
| 2026-04-26 13:51 | 30.85862 | 133.30809 | 37897 ft | 373 kts | 229° |
| 2026-04-26 13:51 | 30.82636 | 133.26080 | 37893 ft | 371 kts | 228° |
| 2026-04-26 13:52 | 30.79456 | 133.21429 | 37901 ft | 371 kts | 229° |
| 2026-04-26 13:52 | 30.76211 | 133.16695 | 37898 ft | 377 kts | 229° |
| 2026-04-26 13:53 | 30.72925 | 133.11899 | 37900 ft | 380 kts | 229° |
| 2026-04-26 13:53 | 30.69632 | 133.07096 | 37903 ft | 378 kts | 229° |
| 2026-04-26 13:54 | 30.66351 | 133.02318 | 37912 ft | 378 kts | 229° |
| 2026-04-26 13:54 | 30.63049 | 132.97522 | 37906 ft | 384 kts | 229° |
| 2026-04-26 13:55 | 30.58579 | 132.91032 | 37903 ft | 387 kts | 229° |
| 2026-04-26 13:56 | 30.52968 | 132.82898 | 37907 ft | 387 kts | 229° |
| 2026-04-26 13:56 | 30.49599 | 132.78024 | 37906 ft | 387 kts | 229° |
| 2026-04-26 13:57 | 30.46229 | 132.73154 | 37906 ft | 387 kts | 229° |
| 2026-04-26 13:57 | 30.42883 | 132.68324 | 37907 ft | 386 kts | 229° |
| 2026-04-26 13:58 | 30.39518 | 132.63474 | 37909 ft | 386 kts | 229° |
| 2026-04-26 13:58 | 30.36138 | 132.58610 | 37908 ft | 390 kts | 230° |
| 2026-04-26 13:59 | 30.32706 | 132.53676 | 37909 ft | 395 kts | 230° |
| 2026-04-26 13:59 | 30.29269 | 132.48737 | 37908 ft | 391 kts | 230° |
| 2026-04-26 14:00 | 30.22442 | 132.38953 | 37916 ft | 394 kts | 230° |
| 2026-04-26 14:01 | 30.18967 | 132.33981 | 37912 ft | 399 kts | 230° |
| 2026-04-26 14:01 | 30.15482 | 132.28999 | 37912 ft | 396 kts | 230° |
| 2026-04-26 14:02 | 30.12011 | 132.24043 | 37911 ft | 397 kts | 230° |
| 2026-04-26 14:02 | 30.08538 | 132.19093 | 37935 ft | 397 kts | 230° |
| 2026-04-26 14:03 | 30.05031 | 132.14101 | 37914 ft | 401 kts | 230° |
| 2026-04-26 14:03 | 30.01526 | 132.09116 | 37917 ft | 398 kts | 230° |
| 2026-04-26 14:04 | 29.98032 | 132.04153 | 37917 ft | 399 kts | 230° |
| 2026-04-26 14:04 | 29.94534 | 131.99191 | 37920 ft | 399 kts | 230° |
| 2026-04-26 14:05 | 29.91026 | 131.94224 | 37920 ft | 403 kts | 231° |
| 2026-04-26 14:05 | 29.87502 | 131.89233 | 37919 ft | 399 kts | 231° |
| 2026-04-26 14:06 | 29.83986 | 131.84264 | 37923 ft | 400 kts | 231° |
| 2026-04-26 14:06 | 29.80453 | 131.79297 | 37922 ft | 400 kts | 230° |
| 2026-04-26 14:07 | 29.76812 | 131.74393 | 37889 ft | 404 kts | 230° |
| 2026-04-26 14:07 | 29.73177 | 131.69500 | 37922 ft | 401 kts | 230° |
| 2026-04-26 14:08 | 29.69553 | 131.64604 | 37925 ft | 402 kts | 230° |
| 2026-04-26 14:08 | 29.66535 | 131.60529 | 37925 ft | 402 kts | 230° |
| 2026-04-26 14:09 | 29.62904 | 131.55633 | 37947 ft | 402 kts | 231° |
| 2026-04-26 14:09 | 29.59266 | 131.50735 | 37927 ft | 402 kts | 231° |
| 2026-04-26 14:10 | 29.55626 | 131.45838 | 37930 ft | 402 kts | 231° |
| 2026-04-26 14:10 | 29.52008 | 131.40976 | 37930 ft | 402 kts | 231° |
| 2026-04-26 14:11 | 29.46555 | 131.33661 | 37943 ft | 401 kts | 231° |
| 2026-04-26 14:11 | 29.42919 | 131.28793 | 37933 ft | 402 kts | 231° |
| 2026-04-26 14:12 | 29.39280 | 131.23924 | 37936 ft | 401 kts | 231° |
| 2026-04-26 14:12 | 29.35642 | 131.19063 | 37936 ft | 402 kts | 231° |
| 2026-04-26 14:13 | 29.30187 | 131.11786 | 37944 ft | 401 kts | 231° |
| 2026-04-26 14:14 | 29.26546 | 131.06936 | 37937 ft | 402 kts | 231° |
| 2026-04-26 14:14 | 29.22901 | 131.02085 | 37938 ft | 401 kts | 231° |
| 2026-04-26 14:15 | 29.19257 | 130.97242 | 37940 ft | 402 kts | 231° |
| 2026-04-26 14:15 | 29.15606 | 130.92395 | 37945 ft | 401 kts | 231° |
| 2026-04-26 14:16 | 29.11973 | 130.87579 | 37946 ft | 402 kts | 231° |
| 2026-04-26 14:16 | 29.08310 | 130.82727 | 37944 ft | 402 kts | 231° |
| 2026-04-26 14:17 | 29.04650 | 130.77886 | 37927 ft | 402 kts | 231° |
| 2026-04-26 14:17 | 29.00995 | 130.73058 | 37947 ft | 401 kts | 231° |
| 2026-04-26 14:18 | 28.97339 | 130.68232 | 37950 ft | 402 kts | 231° |
| 2026-04-26 14:18 | 28.93675 | 130.63402 | 37947 ft | 402 kts | 231° |
| 2026-04-26 14:19 | 28.90014 | 130.58581 | 37947 ft | 402 kts | 231° |
| 2026-04-26 14:19 | 28.86349 | 130.53761 | 37953 ft | 401 kts | 231° |
| 2026-04-26 14:20 | 28.82710 | 130.48982 | 37949 ft | 401 kts | 231° |
| 2026-04-26 14:20 | 28.79048 | 130.44177 | 37955 ft | 403 kts | 231° |
| 2026-04-26 14:21 | 28.75362 | 130.39347 | 37957 ft | 402 kts | 231° |
| 2026-04-26 14:21 | 28.71687 | 130.34537 | 37955 ft | 402 kts | 231° |
| 2026-04-26 14:22 | 28.68039 | 130.29768 | 37957 ft | 402 kts | 231° |
| 2026-04-26 14:22 | 28.64365 | 130.24971 | 37968 ft | 402 kts | 231° |
| 2026-04-26 14:23 | 28.60668 | 130.20147 | 37960 ft | 404 kts | 231° |
| 2026-04-26 14:23 | 28.56973 | 130.15335 | 37960 ft | 403 kts | 231° |
| 2026-04-26 14:24 | 28.53282 | 130.10532 | 37960 ft | 403 kts | 231° |
| 2026-04-26 14:24 | 28.49588 | 130.05731 | 37965 ft | 403 kts | 231° |
| 2026-04-26 14:25 | 28.45894 | 130.00934 | 37965 ft | 405 kts | 231° |
| 2026-04-26 14:25 | 28.42194 | 129.96136 | 37964 ft | 404 kts | 231° |
| 2026-04-26 14:26 | 28.38501 | 129.91354 | 37981 ft | 403 kts | 231° |
| 2026-04-26 14:26 | 28.34794 | 129.86557 | 37962 ft | 403 kts | 231° |
| 2026-04-26 14:27 | 28.31091 | 129.81772 | 37962 ft | 403 kts | 231° |
| 2026-04-26 14:27 | 28.27374 | 129.76973 | 37936 ft | 407 kts | 231° |
| 2026-04-26 14:28 | 28.23651 | 129.72174 | 37967 ft | 404 kts | 231° |
| 2026-04-26 14:28 | 28.19929 | 129.67380 | 37970 ft | 405 kts | 231° |
| 2026-04-26 14:29 | 28.16217 | 129.62606 | 37973 ft | 405 kts | 231° |
| 2026-04-26 14:29 | 28.12490 | 129.57817 | 37986 ft | 405 kts | 231° |
| 2026-04-26 14:30 | 28.08746 | 129.53012 | 37977 ft | 407 kts | 231° |
| 2026-04-26 14:30 | 28.05000 | 129.48211 | 37979 ft | 406 kts | 231° |
| 2026-04-26 14:31 | 28.01256 | 129.43416 | 37980 ft | 407 kts | 231° |
| 2026-04-26 14:31 | 27.97501 | 129.38613 | 37979 ft | 407 kts | 231° |
| 2026-04-26 14:32 | 27.93748 | 129.33819 | 37982 ft | 406 kts | 231° |
| 2026-04-26 14:32 | 27.89995 | 129.29029 | 37982 ft | 410 kts | 231° |
| 2026-04-26 14:33 | 27.86207 | 129.24201 | 37983 ft | 409 kts | 231° |
| 2026-04-26 14:33 | 27.82422 | 129.19381 | 37985 ft | 409 kts | 231° |
| 2026-04-26 14:34 | 27.78643 | 129.14572 | 37983 ft | 407 kts | 231° |
| 2026-04-26 14:34 | 27.74880 | 129.09791 | 37988 ft | 409 kts | 232° |
| 2026-04-26 14:35 | 27.71073 | 129.04967 | 37989 ft | 412 kts | 232° |
| 2026-04-26 14:35 | 27.67258 | 129.00139 | 37991 ft | 411 kts | 232° |
| 2026-04-26 14:36 | 27.63471 | 128.95348 | 37988 ft | 412 kts | 232° |
| 2026-04-26 14:36 | 27.59657 | 128.90528 | 37992 ft | 412 kts | 232° |
| 2026-04-26 14:37 | 27.55826 | 128.85692 | 37993 ft | 415 kts | 232° |
| 2026-04-26 14:37 | 27.51975 | 128.80836 | 37992 ft | 415 kts | 232° |
| 2026-04-26 14:38 | 27.48126 | 128.75989 | 37993 ft | 415 kts | 232° |
| 2026-04-26 14:38 | 27.44318 | 128.71114 | 37996 ft | 412 kts | 235° |
| 2026-04-26 14:39 | 27.41110 | 128.65796 | 38005 ft | 409 kts | 242° |
| 2026-04-26 14:39 | 27.38212 | 128.60243 | 37995 ft | 412 kts | 242° |
| 2026-04-26 14:40 | 27.35291 | 128.54691 | 37865 ft | 411 kts | 242° |
| 2026-04-26 14:40 | 27.33831 | 128.51922 | 37414 ft | 410 kts | 242° |
| 2026-04-26 14:40 | 27.32392 | 128.49194 | 36707 ft | 411 kts | 242° |
| 2026-04-26 14:40 | 27.30928 | 128.46418 | 35865 ft | 413 kts | 242° |
| 2026-04-26 14:41 | 27.29455 | 128.43629 | 34985 ft | 416 kts | 243° |
| 2026-04-26 14:41 | 27.27969 | 128.40814 | 34088 ft | 420 kts | 243° |
| 2026-04-26 14:41 | 27.26466 | 128.37972 | 33054 ft | 424 kts | 243° |
| 2026-04-26 14:41 | 27.24955 | 128.35114 | 32088 ft | 426 kts | 243° |
| 2026-04-26 14:42 | 27.23434 | 128.32240 | 31118 ft | 428 kts | 242° |
| 2026-04-26 14:42 | 27.21906 | 128.29354 | 30207 ft | 430 kts | 242° |
| 2026-04-26 14:42 | 27.20376 | 128.26469 | 29489 ft | 426 kts | 242° |
| 2026-04-26 14:42 | 27.18876 | 128.23647 | 29051 ft | 415 kts | 242° |
| 2026-04-26 14:43 | 27.17410 | 128.20890 | 28514 ft | 407 kts | 242° |
| 2026-04-26 14:43 | 27.15970 | 128.18178 | 27989 ft | 401 kts | 242° |
| 2026-04-26 14:43 | 27.14554 | 128.15514 | 27439 ft | 395 kts | 242° |
| 2026-04-26 14:43 | 27.13154 | 128.12880 | 26901 ft | 390 kts | 242° |
| 2026-04-26 14:44 | 27.11770 | 128.10276 | 26368 ft | 385 kts | 242° |
| 2026-04-26 14:44 | 27.10407 | 128.07712 | 25845 ft | 381 kts | 242° |
| 2026-04-26 14:44 | 27.09057 | 128.05174 | 25321 ft | 377 kts | 243° |
| 2026-04-26 14:44 | 27.07734 | 128.02684 | 24806 ft | 373 kts | 243° |
| 2026-04-26 14:45 | 27.06408 | 128.00193 | 24281 ft | 370 kts | 242° |
| 2026-04-26 14:45 | 27.05963 | 127.99358 | 24118 ft | 369 kts | 242° |
| 2026-04-26 14:45 | 27.03771 | 127.95286 | 23229 ft | 365 kts | 239° |
| 2026-04-26 14:45 | 27.02093 | 127.93149 | 22699 ft | 367 kts | 225° |
| 2026-04-26 14:46 | 26.99958 | 127.91556 | 22199 ft | 371 kts | 211° |
| 2026-04-26 14:46 | 26.97494 | 127.90624 | 21688 ft | 378 kts | 196° |
| 2026-04-26 14:46 | 26.94846 | 127.90433 | 21157 ft | 384 kts | 184° |
| 2026-04-26 14:46 | 26.92180 | 127.90523 | 20607 ft | 383 kts | 184° |
| 2026-04-26 14:47 | 26.90416 | 127.90583 | 20245 ft | 381 kts | 184° |
| 2026-04-26 14:47 | 26.87765 | 127.90670 | 19701 ft | 380 kts | 184° |
| 2026-04-26 14:47 | 26.85125 | 127.90752 | 19139 ft | 380 kts | 184° |
| 2026-04-26 14:47 | 26.82488 | 127.90831 | 18606 ft | 378 kts | 184° |
| 2026-04-26 14:48 | 26.79844 | 127.90910 | 18026 ft | 378 kts | 184° |
| 2026-04-26 14:48 | 26.77223 | 127.90988 | 17484 ft | 375 kts | 184° |
| 2026-04-26 14:48 | 26.74621 | 127.91066 | 16945 ft | 372 kts | 183° |
| 2026-04-26 14:48 | 26.72037 | 127.91143 | 16399 ft | 370 kts | 183° |
| 2026-04-26 14:49 | 26.69469 | 127.91218 | 15821 ft | 369 kts | 183° |
| 2026-04-26 14:49 | 26.66906 | 127.91292 | 15283 ft | 367 kts | 183° |
| 2026-04-26 14:49 | 26.64355 | 127.91366 | 14737 ft | 367 kts | 183° |
| 2026-04-26 14:49 | 26.61805 | 127.91440 | 14187 ft | 366 kts | 182° |
| 2026-04-26 14:50 | 26.59254 | 127.91515 | 13642 ft | 366 kts | 182° |
| 2026-04-26 14:50 | 26.56745 | 127.91589 | 13092 ft | 363 kts | 182° |
| 2026-04-26 14:50 | 26.54228 | 127.91663 | 12544 ft | 361 kts | 182° |
| 2026-04-26 14:50 | 26.51728 | 127.91736 | 12032 ft | 358 kts | 182° |
| 2026-04-26 14:51 | 26.49246 | 127.91809 | 11509 ft | 356 kts | 182° |
| 2026-04-26 14:51 | 26.46785 | 127.91882 | 11140 ft | 349 kts | 181° |
| 2026-04-26 14:51 | 26.44367 | 127.91954 | 11031 ft | 350 kts | 181° |
| 2026-04-26 14:51 | 26.41914 | 127.92024 | 11006 ft | 351 kts | 181° |
| 2026-04-26 14:52 | 26.39494 | 127.91846 | 11011 ft | 347 kts | 194° |
| 2026-04-26 14:52 | 26.37201 | 127.91065 | 11011 ft | 343 kts | 207° |
| 2026-04-26 14:52 | 26.35036 | 127.89944 | 10976 ft | 343 kts | 208° |
| 2026-04-26 14:52 | 26.32867 | 127.88824 | 10721 ft | 344 kts | 208° |
| 2026-04-26 14:53 | 26.30685 | 127.87705 | 10135 ft | 348 kts | 207° |
| 2026-04-26 14:53 | 26.28470 | 127.86571 | 9529 ft | 349 kts | 207° |
| 2026-04-26 14:53 | 26.26335 | 127.85485 | 9367 ft | 334 kts | 207° |
| 2026-04-26 14:53 | 26.24264 | 127.84433 | 9225 ft | 319 kts | 207° |
| 2026-04-26 14:54 | 26.22280 | 127.83424 | 9095 ft | 306 kts | 207° |
| 2026-04-26 14:54 | 26.20381 | 127.82458 | 8951 ft | 293 kts | 207° |
| 2026-04-26 14:54 | 26.18542 | 127.81520 | 8596 ft | 289 kts | 207° |
| 2026-04-26 14:54 | 26.16716 | 127.80586 | 8216 ft | 287 kts | 207° |
| 2026-04-26 14:55 | 26.14904 | 127.79661 | 7805 ft | 286 kts | 207° |
| 2026-04-26 14:55 | 26.13100 | 127.78740 | 7356 ft | 285 kts | 207° |
| 2026-04-26 14:55 | 26.11306 | 127.77826 | 6981 ft | 282 kts | 207° |
| 2026-04-26 14:55 | 26.09527 | 127.76922 | 6604 ft | 280 kts | 207° |
| 2026-04-26 14:56 | 26.07786 | 127.76036 | 6216 ft | 278 kts | 207° |
| 2026-04-26 14:56 | 26.06139 | 127.74944 | 5763 ft | 274 kts | 226° |
| 2026-04-26 14:56 | 26.05109 | 127.73211 | 5361 ft | 268 kts | 253° |
| 2026-04-26 14:56 | 26.04841 | 127.71180 | 4963 ft | 265 kts | 269° |
| 2026-04-26 14:57 | 26.04800 | 127.69121 | 4510 ft | 266 kts | 272° |
| 2026-04-26 14:57 | 26.05229 | 127.67188 | 4349 ft | 252 kts | 300° |
| 2026-04-26 14:57 | 26.06382 | 127.65811 | 4239 ft | 240 kts | 329° |
| 2026-04-26 14:57 | 26.07937 | 127.65285 | 4159 ft | 230 kts | 351° |
| 2026-04-26 14:58 | 26.09493 | 127.65186 | 4063 ft | 218 kts | 358° |
| 2026-04-26 14:58 | 26.10952 | 127.65239 | 4001 ft | 205 kts | 359° |
| 2026-04-26 14:58 | 26.12323 | 127.65274 | 4118 ft | 192 kts | 9° |
| 2026-04-26 14:58 | 26.13481 | 127.65998 | 4282 ft | 199 kts | 48° |
| 2026-04-26 14:59 | 26.14048 | 127.67479 | 4601 ft | 228 kts | 81° |
| 2026-04-26 14:59 | 26.14195 | 127.69305 | 4811 ft | 240 kts | 84° |
| 2026-04-26 14:59 | 26.14313 | 127.71160 | 4763 ft | 240 kts | 84° |
| 2026-04-26 14:59 | 26.14393 | 127.72383 | 4637 ft | 238 kts | 84° |
| 2026-04-26 15:00 | 26.14277 | 127.74827 | 4183 ft | 240 kts | 111° |
| 2026-04-26 15:00 | 26.13314 | 127.76312 | 3811 ft | 239 kts | 143° |
| 2026-04-26 15:00 | 26.11807 | 127.77014 | 3435 ft | 236 kts | 176° |
| 2026-04-26 15:00 | 26.10209 | 127.76752 | 3046 ft | 233 kts | 202° |
| 2026-04-26 15:01 | 26.08712 | 127.76108 | 2770 ft | 229 kts | 204° |
| 2026-04-26 15:01 | 26.07247 | 127.75484 | 2632 ft | 220 kts | 204° |
| 2026-04-26 15:01 | 26.06003 | 127.74621 | 2494 ft | 206 kts | 229° |
| 2026-04-26 15:01 | 26.05228 | 127.73324 | 2193 ft | 200 kts | 254° |
| 2026-04-26 15:02 | 26.05023 | 127.71869 | 2065 ft | 186 kts | 273° |
| 2026-04-26 15:02 | 26.04991 | 127.70497 | 2001 ft | 170 kts | 272° |
| 2026-04-26 15:02 | 26.04940 | 127.69174 | 2004 ft | 176 kts | 271° |
| 2026-04-26 15:02 | 26.04887 | 127.67832 | 2000 ft | 172 kts | 271° |
| 2026-04-26 15:03 | 26.04951 | 127.66522 | 1981 ft | 168 kts | 296° |
| 2026-04-26 15:03 | 26.05775 | 127.65673 | 1923 ft | 167 kts | 338° |
| 2026-04-26 15:03 | 26.06908 | 127.65377 | 1849 ft | 167 kts | 352° |
| 2026-04-26 15:03 | 26.08029 | 127.65284 | 1787 ft | 148 kts | 356° |
| 2026-04-26 15:04 | 26.08965 | 127.65235 | 1710 ft | 130 kts | 355° |
| 2026-04-26 15:04 | 26.09876 | 127.65179 | 1613 ft | 131 kts | 355° |
| 2026-04-26 15:04 | 26.10769 | 127.65127 | 1461 ft | 128 kts | 355° |
| 2026-04-26 15:04 | 26.11662 | 127.65074 | 1303 ft | 128 kts | 355° |
| 2026-04-26 15:05 | 26.12547 | 127.65021 | 1141 ft | 127 kts | 355° |
| 2026-04-26 15:05 | 26.13142 | 127.64986 | 1030 ft | 128 kts | 355° |
| 2026-04-26 15:05 | 26.14325 | 127.64916 | 815 ft | 128 kts | 355° |
| 2026-04-26 15:05 | 26.15209 | 127.64864 | 666 ft | 127 kts | 355° |
| 2026-04-26 15:06 | 26.16094 | 127.64816 | 489 ft | 123 kts | 356° |
| 2026-04-26 15:06 | 26.16964 | 127.64720 | 372 ft | 127 kts | 354° |
| 2026-04-26 15:06 | 26.17849 | 127.64667 | 180 ft | 128 kts | 358° |
| 2026-04-26 15:06 | 26.18727 | 127.64636 | 36 ft | 123 kts | 355° |
| 2026-04-26 15:07 | 26.19771 | 127.64584 | 20 ft | 29 kts | 358° |
| 2026-04-26 15:07 | 26.19974 | 127.64574 | 20 ft | 29 kts | 357° |
| 2026-04-26 15:07 | 26.20167 | 127.64580 | 21 ft | 27 kts | 10° |
| 2026-04-26 15:08 | 26.20328 | 127.64646 | 24 ft | 23 kts | 26° |
| 2026-04-26 15:08 | 26.20421 | 127.64700 | 22 ft | 14 kts | 27° |
| 2026-04-26 15:08 | 26.20504 | 127.64748 | 25 ft | 13 kts | 26° |
| 2026-04-26 15:08 | 26.20582 | 127.64756 | 22 ft | 12 kts | 357° |
| 2026-04-26 15:09 | 26.20628 | 127.64777 | 22 ft | 5 kts | 83° |
| 2026-04-26 15:09 | 26.20634 | 127.64831 | 22 ft | 9 kts | 85° |
| 2026-04-26 15:09 | 26.20635 | 127.64908 | 21 ft | 6 kts | 98° |
| 2026-04-26 15:09 | 26.20609 | 127.64919 | 22 ft | 5 kts | 173° |
| 2026-04-26 15:10 | 26.20564 | 127.64933 | 21 ft | 4 kts | 143° |
| 2026-04-26 15:10 | 26.20555 | 127.64942 | 21 ft | 4 kts | 142° |
| 2026-04-26 15:10 | 26.20552 | 127.64944 | 21 ft | 0 kts | 142° |